sensor_id;sensor_type;location;lat;lon;timestamp;pressure;altitude;pressure_sealevel;temperature
27826;BMP280;15077;49.704;9.908;2024-02-21T00:01:40;99012.03;;;12.34
27826;BMP280;15077;49.704;9.908;2024-02-21T00:04:05;99005.28;;;12.33
27826;BMP280;15077;49.704;9.908;2024-02-21T00:06:31;99000.94;;;12.35
27826;BMP280;15077;49.704;9.908;2024-02-21T00:08:58;99002.69;;;12.35
27826;BMP280;15077;49.704;9.908;2024-02-21T00:11:23;99005.22;;;12.35
27826;BMP280;15077;49.704;9.908;2024-02-21T00:13:49;99004.44;;;12.33
27826;BMP280;15077;49.704;9.908;2024-02-21T00:16:17;98990.88;;;12.32
27826;BMP280;15077;49.704;9.908;2024-02-21T00:18:44;98983.25;;;12.32
27826;BMP280;15077;49.704;9.908;2024-02-21T00:21:12;98997.69;;;12.32
27826;BMP280;15077;49.704;9.908;2024-02-21T00:23:46;98989.28;;;12.30
27826;BMP280;15077;49.704;9.908;2024-02-21T00:26:15;98977.47;;;12.29
27826;BMP280;15077;49.704;9.908;2024-02-21T00:28:41;98987.63;;;12.29
27826;BMP280;15077;49.704;9.908;2024-02-21T00:31:07;98979.22;;;12.27
27826;BMP280;15077;49.704;9.908;2024-02-21T00:33:35;98975.00;;;12.26
27826;BMP280;15077;49.704;9.908;2024-02-21T00:36:01;98970.81;;;12.25
27826;BMP280;15077;49.704;9.908;2024-02-21T00:38:27;98976.75;;;12.25
27826;BMP280;15077;49.704;9.908;2024-02-21T00:40:52;98964.84;;;12.26
27826;BMP280;15077;49.704;9.908;2024-02-21T00:43:19;98970.81;;;12.25
27826;BMP280;15077;49.704;9.908;2024-02-21T00:45:50;98963.97;;;12.27
27826;BMP280;15077;49.704;9.908;2024-02-21T00:48:16;98963.97;;;12.27
27826;BMP280;15077;49.704;9.908;2024-02-21T00:50:42;98956.47;;;12.24
27826;BMP280;15077;49.704;9.908;2024-02-21T00:53:08;98956.47;;;12.24
27826;BMP280;15077;49.704;9.908;2024-02-21T00:55:33;98956.47;;;12.24
27826;BMP280;15077;49.704;9.908;2024-02-21T00:57:59;98951.44;;;12.22
27826;BMP280;15077;49.704;9.908;2024-02-21T01:00:25;98947.16;;;12.23
27826;BMP280;15077;49.704;9.908;2024-02-21T01:02:50;98946.34;;;12.22
27826;BMP280;15077;49.704;9.908;2024-02-21T01:05:16;98945.50;;;12.22
27826;BMP280;15077;49.704;9.908;2024-02-21T01:07:41;98944.66;;;12.21
27826;BMP280;15077;49.704;9.908;2024-02-21T01:10:08;98943.91;;;12.19
27826;BMP280;15077;49.704;9.908;2024-02-21T01:12:33;98924.50;;;12.17
27826;BMP280;15077;49.704;9.908;2024-02-21T01:14:59;98933.78;;;12.18
27826;BMP280;15077;49.704;9.908;2024-02-21T01:17:24;98921.94;;;12.17
27826;BMP280;15077;49.704;9.908;2024-02-21T01:19:50;98913.56;;;12.15
27826;BMP280;15077;49.704;9.908;2024-02-21T01:22:16;98912.75;;;12.13
27826;BMP280;15077;49.704;9.908;2024-02-21T01:24:41;98910.22;;;12.13
27826;BMP280;15077;49.704;9.908;2024-02-21T01:27:07;98907.78;;;12.10
27826;BMP280;15077;49.704;9.908;2024-02-21T01:29:33;98898.53;;;12.09
27826;BMP280;15077;49.704;9.908;2024-02-21T01:31:59;98897.63;;;12.10
27826;BMP280;15077;49.704;9.908;2024-02-21T01:34:24;98882.41;;;12.09
27826;BMP280;15077;49.704;9.908;2024-02-21T01:36:50;98891.00;;;12.06
27826;BMP280;15077;49.704;9.908;2024-02-21T01:39:15;98891.06;;;12.05
27826;BMP280;15077;49.704;9.908;2024-02-21T01:41:41;98891.16;;;12.02
27826;BMP280;15077;49.704;9.908;2024-02-21T01:44:07;98892.91;;;12.00
27826;BMP280;15077;49.704;9.908;2024-02-21T01:46:32;98888.75;;;11.97
27826;BMP280;15077;49.704;9.908;2024-02-21T01:48:59;98887.06;;;11.98
27826;BMP280;15077;49.704;9.908;2024-02-21T01:51:25;98881.13;;;11.97
27826;BMP280;15077;49.704;9.908;2024-02-21T01:53:51;98881.97;;;11.98
27826;BMP280;15077;49.704;9.908;2024-02-21T01:56:18;98877.75;;;11.97
27826;BMP280;15077;49.704;9.908;2024-02-21T01:58:45;98873.50;;;11.97
27826;BMP280;15077;49.704;9.908;2024-02-21T02:01:12;98854.84;;;11.98
27826;BMP280;15077;49.704;9.908;2024-02-21T02:03:38;98860.78;;;11.99
27826;BMP280;15077;49.704;9.908;2024-02-21T02:06:05;98861.53;;;12.01
27826;BMP280;15077;49.704;9.908;2024-02-21T02:08:32;98853.91;;;12.01
27826;BMP280;15077;49.704;9.908;2024-02-21T02:10:59;98854.72;;;12.01
27826;BMP280;15077;49.704;9.908;2024-02-21T02:13:24;98854.72;;;12.01
27826;BMP280;15077;49.704;9.908;2024-02-21T02:15:50;98854.69;;;12.03
27826;BMP280;15077;49.704;9.908;2024-02-21T02:18:17;98842.09;;;12.00
27826;BMP280;15077;49.704;9.908;2024-02-21T02:20:44;98848.88;;;11.99
27826;BMP280;15077;49.704;9.908;2024-02-21T02:23:12;98842.19;;;11.97
27826;BMP280;15077;49.704;9.908;2024-02-21T02:25:39;98849.03;;;11.95
27826;BMP280;15077;49.704;9.908;2024-02-21T02:28:06;98861.69;;;11.96
27826;BMP280;15077;49.704;9.908;2024-02-21T02:30:33;98859.97;;;11.97
27826;BMP280;15077;49.704;9.908;2024-02-21T02:33:00;98854.94;;;11.95
27826;BMP280;15077;49.704;9.908;2024-02-21T02:35:25;98851.63;;;11.93
27826;BMP280;15077;49.704;9.908;2024-02-21T02:37:51;98852.50;;;11.92
27826;BMP280;15077;49.704;9.908;2024-02-21T02:40:18;98840.69;;;11.91
27826;BMP280;15077;49.704;9.908;2024-02-21T02:42:43;98834.84;;;11.89
27826;BMP280;15077;49.704;9.908;2024-02-21T02:45:09;98829.75;;;11.89
27826;BMP280;15077;49.704;9.908;2024-02-21T02:47:35;98821.38;;;11.87
27826;BMP280;15077;49.704;9.908;2024-02-21T02:50:01;98812.13;;;11.85
27826;BMP280;15077;49.704;9.908;2024-02-21T02:52:27;98811.31;;;11.84
27826;BMP280;15077;49.704;9.908;2024-02-21T02:54:52;98809.63;;;11.83
27826;BMP280;15077;49.704;9.908;2024-02-21T02:57:21;98797.81;;;11.82
27826;BMP280;15077;49.704;9.908;2024-02-21T02:59:50;98805.44;;;11.82
27826;BMP280;15077;49.704;9.908;2024-02-21T03:02:17;98814.78;;;11.82
27826;BMP280;15077;49.704;9.908;2024-02-21T03:04:43;98819.03;;;11.81
27826;BMP280;15077;49.704;9.908;2024-02-21T03:07:09;98814.78;;;11.82
27826;BMP280;15077;49.704;9.908;2024-02-21T03:09:39;98809.75;;;11.80
27826;BMP280;15077;49.704;9.908;2024-02-21T03:12:06;98811.41;;;11.81
27826;BMP280;15077;49.704;9.908;2024-02-21T03:14:32;98814.00;;;11.80
27826;BMP280;15077;49.704;9.908;2024-02-21T03:16:58;98816.50;;;11.81
27826;BMP280;15077;49.704;9.908;2024-02-21T03:19:24;98819.84;;;11.82
27826;BMP280;15077;49.704;9.908;2024-02-21T03:21:50;98816.50;;;11.81
27826;BMP280;15077;49.704;9.908;2024-02-21T03:24:16;98811.41;;;11.81
27826;BMP280;15077;49.704;9.908;2024-02-21T03:26:42;98812.28;;;11.80
27826;BMP280;15077;49.704;9.908;2024-02-21T03:29:08;98804.66;;;11.80
27826;BMP280;15077;49.704;9.908;2024-02-21T03:31:34;98801.31;;;11.80
27826;BMP280;15077;49.704;9.908;2024-02-21T03:34:00;98800.41;;;11.81
27826;BMP280;15077;49.704;9.908;2024-02-21T03:36:26;98805.47;;;11.81
27826;BMP280;15077;49.704;9.908;2024-02-21T03:38:52;98802.13;;;11.80
27826;BMP280;15077;49.704;9.908;2024-02-21T03:41:17;98801.25;;;11.81
27826;BMP280;15077;49.704;9.908;2024-02-21T03:43:43;98794.50;;;11.80
27826;BMP280;15077;49.704;9.908;2024-02-21T03:46:09;98793.69;;;11.80
27826;BMP280;15077;49.704;9.908;2024-02-21T03:48:35;98780.94;;;11.81
27826;BMP280;15077;49.704;9.908;2024-02-21T03:51:01;98784.34;;;11.80
27826;BMP280;15077;49.704;9.908;2024-02-21T03:53:26;98791.09;;;11.81
27826;BMP280;15077;49.704;9.908;2024-02-21T03:55:54;98790.25;;;11.81
27826;BMP280;15077;49.704;9.908;2024-02-21T03:58:20;98785.13;;;11.82
27826;BMP280;15077;49.704;9.908;2024-02-21T04:00:46;98787.66;;;11.82
27826;BMP280;15077;49.704;9.908;2024-02-21T04:03:11;98783.47;;;11.81
27826;BMP280;15077;49.704;9.908;2024-02-21T04:05:37;98780.94;;;11.81
27826;BMP280;15077;49.704;9.908;2024-02-21T04:08:05;98774.06;;;11.83
27826;BMP280;15077;49.704;9.908;2024-02-21T04:10:31;98765.69;;;11.81
27826;BMP280;15077;49.704;9.908;2024-02-21T04:12:57;98759.78;;;11.81
27826;BMP280;15077;49.704;9.908;2024-02-21T04:15:23;98757.28;;;11.79
27826;BMP280;15077;49.704;9.908;2024-02-21T04:17:48;98755.66;;;11.78
27826;BMP280;15077;49.704;9.908;2024-02-21T04:20:15;98756.56;;;11.76
27826;BMP280;15077;49.704;9.908;2024-02-21T04:22:45;98756.63;;;11.74
27826;BMP280;15077;49.704;9.908;2024-02-21T04:25:10;98745.69;;;11.72
27826;BMP280;15077;49.704;9.908;2024-02-21T04:27:37;98739.06;;;11.68
27826;BMP280;15077;49.704;9.908;2024-02-21T04:30:03;98738.25;;;11.68
27826;BMP280;15077;49.704;9.908;2024-02-21T04:32:29;98741.66;;;11.67
27826;BMP280;15077;49.704;9.908;2024-02-21T04:34:55;98737.41;;;11.67
27826;BMP280;15077;49.704;9.908;2024-02-21T04:37:21;98734.84;;;11.67
27826;BMP280;15077;49.704;9.908;2024-02-21T04:39:47;98731.50;;;11.67
27826;BMP280;15077;49.704;9.908;2024-02-21T04:42:13;98731.50;;;11.67
27826;BMP280;15077;49.704;9.908;2024-02-21T04:44:38;98734.91;;;11.66
27826;BMP280;15077;49.704;9.908;2024-02-21T04:47:04;98730.78;;;11.63
27826;BMP280;15077;49.704;9.908;2024-02-21T04:49:30;98729.94;;;11.63
27826;BMP280;15077;49.704;9.908;2024-02-21T04:51:56;98737.59;;;11.62
27826;BMP280;15077;49.704;9.908;2024-02-21T04:54:21;98730.03;;;11.60
27826;BMP280;15077;49.704;9.908;2024-02-21T04:56:47;98740.25;;;11.59
27826;BMP280;15077;49.704;9.908;2024-02-21T04:59:12;98739.50;;;11.57
27826;BMP280;15077;49.704;9.908;2024-02-21T05:01:38;98743.69;;;11.58
27826;BMP280;15077;49.704;9.908;2024-02-21T05:04:04;98741.09;;;11.59
27826;BMP280;15077;49.704;9.908;2024-02-21T05:06:29;98743.66;;;11.59
27826;BMP280;15077;49.704;9.908;2024-02-21T05:08:55;98746.13;;;11.61
27826;BMP280;15077;49.704;9.908;2024-02-21T05:11:23;98746.94;;;11.61
27826;BMP280;15077;49.704;9.908;2024-02-21T05:13:49;98740.16;;;11.62
27826;BMP280;15077;49.704;9.908;2024-02-21T05:16:15;98738.41;;;11.63
27826;BMP280;15077;49.704;9.908;2024-02-21T05:18:41;98739.16;;;11.65
27826;BMP280;15077;49.704;9.908;2024-02-21T05:21:08;98738.41;;;11.63
27826;BMP280;15077;49.704;9.908;2024-02-21T05:23:33;98743.59;;;11.61
27826;BMP280;15077;49.704;9.908;2024-02-21T05:25:59;98730.09;;;11.59
27826;BMP280;15077;49.704;9.908;2024-02-21T05:28:25;98723.44;;;11.56
27826;BMP280;15077;49.704;9.908;2024-02-21T05:30:50;98727.75;;;11.53
27826;BMP280;15077;49.704;9.908;2024-02-21T05:33:16;98723.63;;;11.50
27826;BMP280;15077;49.704;9.908;2024-02-21T05:35:47;98717.03;;;11.45
27826;BMP280;15077;49.704;9.908;2024-02-21T05:38:14;98709.50;;;11.42
27826;BMP280;15077;49.704;9.908;2024-02-21T05:40:39;98702.88;;;11.38
27826;BMP280;15077;49.704;9.908;2024-02-21T05:43:06;98706.34;;;11.35
27826;BMP280;15077;49.704;9.908;2024-02-21T05:45:32;98696.34;;;11.31
27826;BMP280;15077;49.704;9.908;2024-02-21T05:47:57;98692.22;;;11.28
27826;BMP280;15077;49.704;9.908;2024-02-21T05:50:23;98690.56;;;11.27
27826;BMP280;15077;49.704;9.908;2024-02-21T05:52:53;98681.38;;;11.23
27826;BMP280;15077;49.704;9.908;2024-02-21T05:55:19;98689.94;;;11.21
27826;BMP280;15077;49.704;9.908;2024-02-21T05:57:45;98686.59;;;11.19
27826;BMP280;15077;49.704;9.908;2024-02-21T06:00:11;98684.97;;;11.18
27826;BMP280;15077;49.704;9.908;2024-02-21T06:02:37;98674.03;;;11.16
27826;BMP280;15077;49.704;9.908;2024-02-21T06:05:02;98678.22;;;11.17
27826;BMP280;15077;49.704;9.908;2024-02-21T06:07:28;98679.09;;;11.16
27826;BMP280;15077;49.704;9.908;2024-02-21T06:09:54;98684.22;;;11.14
27826;BMP280;15077;49.704;9.908;2024-02-21T06:12:19;98697.72;;;11.16
27826;BMP280;15077;49.704;9.908;2024-02-21T06:14:45;98690.06;;;11.18
27826;BMP280;15077;49.704;9.908;2024-02-21T06:17:11;98688.28;;;11.20
27826;BMP280;15077;49.704;9.908;2024-02-21T06:19:40;98689.94;;;11.21
27826;BMP280;15077;49.704;9.908;2024-02-21T06:22:06;98691.53;;;11.23
27826;BMP280;15077;49.704;9.908;2024-02-21T06:24:34;98691.53;;;11.23
27826;BMP280;15077;49.704;9.908;2024-02-21T06:27:00;98698.22;;;11.26
27826;BMP280;15077;49.704;9.908;2024-02-21T06:29:26;98700.66;;;11.29
27826;BMP280;15077;49.704;9.908;2024-02-21T06:31:51;98703.19;;;11.29
27826;BMP280;15077;49.704;9.908;2024-02-21T06:34:17;98704.84;;;11.30
27826;BMP280;15077;49.704;9.908;2024-02-21T06:36:44;98696.34;;;11.31
27826;BMP280;15077;49.704;9.908;2024-02-21T06:39:10;98698.81;;;11.32
27826;BMP280;15077;49.704;9.908;2024-02-21T06:41:37;98698.78;;;11.34
27826;BMP280;15077;49.704;9.908;2024-02-21T06:44:03;98703.84;;;11.34
27826;BMP280;15077;49.704;9.908;2024-02-21T06:46:29;98698.78;;;11.34
27826;BMP280;15077;49.704;9.908;2024-02-21T06:48:55;98690.34;;;11.33
27826;BMP280;15077;49.704;9.908;2024-02-21T06:51:26;98682.78;;;11.32
27826;BMP280;15077;49.704;9.908;2024-02-21T06:53:52;98671.91;;;11.28
27826;BMP280;15077;49.704;9.908;2024-02-21T06:56:18;98671.97;;;11.27
27826;BMP280;15077;49.704;9.908;2024-02-21T06:58:44;98677.16;;;11.24
27826;BMP280;15077;49.704;9.908;2024-02-21T07:01:10;98672.13;;;11.22
27826;BMP280;15077;49.704;9.908;2024-02-21T07:03:36;98661.97;;;11.22
27826;BMP280;15077;49.704;9.908;2024-02-21T07:06:02;98655.19;;;11.23
27826;BMP280;15077;49.704;9.908;2024-02-21T07:08:28;98648.41;;;11.23
27826;BMP280;15077;49.704;9.908;2024-02-21T07:10:53;98654.25;;;11.25
27826;BMP280;15077;49.704;9.908;2024-02-21T07:13:19;98661.03;;;11.25
27826;BMP280;15077;49.704;9.908;2024-02-21T07:15:45;98662.69;;;11.26
27826;BMP280;15077;49.704;9.908;2024-02-21T07:18:11;98660.09;;;11.27
27826;BMP280;15077;49.704;9.908;2024-02-21T07:20:37;98666.78;;;11.30
27826;BMP280;15077;49.704;9.908;2024-02-21T07:23:03;98671.81;;;11.31
27826;BMP280;15077;49.704;9.908;2024-02-21T07:25:29;98663.31;;;11.32
27826;BMP280;15077;49.704;9.908;2024-02-21T07:27:54;98668.31;;;11.34
27826;BMP280;15077;49.704;9.908;2024-02-21T07:30:20;98664.91;;;11.35
27826;BMP280;15077;49.704;9.908;2024-02-21T07:32:49;98654.72;;;11.36
27826;BMP280;15077;49.704;9.908;2024-02-21T07:35:15;98654.66;;;11.38
27826;BMP280;15077;49.704;9.908;2024-02-21T07:37:40;98651.19;;;11.40
27826;BMP280;15077;49.704;9.908;2024-02-21T07:40:11;98654.50;;;11.42
27826;BMP280;15077;49.704;9.908;2024-02-21T07:42:37;98661.25;;;11.43
27826;BMP280;15077;49.704;9.908;2024-02-21T07:45:03;98662.88;;;11.44
27826;BMP280;15077;49.704;9.908;2024-02-21T07:47:29;98667.03;;;11.47
27826;BMP280;15077;49.704;9.908;2024-02-21T07:49:54;98677.97;;;11.49
27826;BMP280;15077;49.704;9.908;2024-02-21T07:52:20;98669.44;;;11.51
27826;BMP280;15077;49.704;9.908;2024-02-21T07:54:46;98671.09;;;11.52
27826;BMP280;15077;49.704;9.908;2024-02-21T07:57:11;98666.84;;;11.53
27826;BMP280;15077;49.704;9.908;2024-02-21T07:59:37;98663.44;;;11.54
27826;BMP280;15077;49.704;9.908;2024-02-21T08:02:02;98658.34;;;11.54
27826;BMP280;15077;49.704;9.908;2024-02-21T08:04:32;98655.72;;;11.57
27826;BMP280;15077;49.704;9.908;2024-02-21T08:06:58;98653.97;;;11.57
27826;BMP280;15077;49.704;9.908;2024-02-21T08:09:27;98647.16;;;11.59
27826;BMP280;15077;49.704;9.908;2024-02-21T08:11:54;98647.09;;;11.61
27826;BMP280;15077;49.704;9.908;2024-02-21T08:14:21;98641.13;;;11.62
27826;BMP280;15077;49.704;9.908;2024-02-21T08:16:47;98643.66;;;11.62
27826;BMP280;15077;49.704;9.908;2024-02-21T08:19:12;98630.09;;;11.63
27826;BMP280;15077;49.704;9.908;2024-02-21T08:21:38;98629.22;;;11.63
27826;BMP280;15077;49.704;9.908;2024-02-21T08:24:04;98635.94;;;11.64
27826;BMP280;15077;49.704;9.908;2024-02-21T08:26:30;98629.16;;;11.65
27826;BMP280;15077;49.704;9.908;2024-02-21T08:28:57;98629.09;;;11.66
27826;BMP280;15077;49.704;9.908;2024-02-21T08:31:29;98634.94;;;11.68
27826;BMP280;15077;49.704;9.908;2024-02-21T08:34:00;98639.97;;;11.70
27826;BMP280;15077;49.704;9.908;2024-02-21T08:36:36;98637.31;;;11.73
27826;BMP280;15077;49.704;9.908;2024-02-21T08:39:02;98630.41;;;11.76
27826;BMP280;15077;49.704;9.908;2024-02-21T08:41:30;98629.47;;;11.79
27826;BMP280;15077;49.704;9.908;2024-02-21T08:43:56;98627.63;;;11.82
27826;BMP280;15077;49.704;9.908;2024-02-21T08:46:25;98631.63;;;11.89
27826;BMP280;15077;49.704;9.908;2024-02-21T08:48:52;98627.28;;;11.91
27826;BMP280;15077;49.704;9.908;2024-02-21T08:51:18;98619.63;;;11.93
27826;BMP280;15077;49.704;9.908;2024-02-21T08:53:45;98621.97;;;11.97
27826;BMP280;15077;49.704;9.908;2024-02-21T08:56:11;98626.06;;;12.01
27826;BMP280;15077;49.704;9.908;2024-02-21T08:58:36;98620.88;;;12.04
27826;BMP280;15077;49.704;9.908;2024-02-21T09:01:03;98622.44;;;12.08
27826;BMP280;15077;49.704;9.908;2024-02-21T09:03:33;98617.91;;;12.14
27826;BMP280;15077;49.704;9.908;2024-02-21T09:05:59;98616.88;;;12.20
27826;BMP280;15077;49.704;9.908;2024-02-21T09:08:26;98598.91;;;12.24
27826;BMP280;15077;49.704;9.908;2024-02-21T09:10:52;98601.25;;;12.29
27826;BMP280;15077;49.704;9.908;2024-02-21T09:13:18;98590.97;;;12.32
27826;BMP280;15077;49.704;9.908;2024-02-21T09:15:43;98593.34;;;12.36
27826;BMP280;15077;49.704;9.908;2024-02-21T09:18:09;98583.69;;;12.44
27826;BMP280;15077;49.704;9.908;2024-02-21T09:20:35;98595.31;;;12.50
27826;BMP280;15077;49.704;9.908;2024-02-21T09:23:00;98588.34;;;12.55
27826;BMP280;15077;49.704;9.908;2024-02-21T09:25:26;98593.25;;;12.59
27826;BMP280;15077;49.704;9.908;2024-02-21T09:27:54;98579.50;;;12.63
27826;BMP280;15077;49.704;9.908;2024-02-21T09:30:20;98582.78;;;12.66
27826;BMP280;15077;49.704;9.908;2024-02-21T09:32:46;98572.47;;;12.69
27826;BMP280;15077;49.704;9.908;2024-02-21T09:35:12;98572.41;;;12.71
27826;BMP280;15077;49.704;9.908;2024-02-21T09:37:41;98574.69;;;12.77
27826;BMP280;15077;49.704;9.908;2024-02-21T09:40:07;98570.28;;;12.80
27826;BMP280;15077;49.704;9.908;2024-02-21T09:42:38;98572.78;;;12.82
27826;BMP280;15077;49.704;9.908;2024-02-21T09:45:25;98567.59;;;12.85
27826;BMP280;15077;49.704;9.908;2024-02-21T09:50:22;98560.59;;;12.90
27826;BMP280;15077;49.704;9.908;2024-02-21T09:52:51;98561.38;;;12.92
27826;BMP280;15077;49.704;9.908;2024-02-21T09:55:18;98551.13;;;12.93
27826;BMP280;15077;49.704;9.908;2024-02-21T09:57:44;98556.06;;;12.96
27826;BMP280;15077;49.704;9.908;2024-02-21T10:00:10;98560.09;;;13.02
27826;BMP280;15077;49.704;9.908;2024-02-21T10:02:35;98548.94;;;13.04
27826;BMP280;15077;49.704;9.908;2024-02-21T10:05:02;98543.72;;;13.07
27826;BMP280;15077;49.704;9.908;2024-02-21T10:07:30;98542.00;;;13.08
27826;BMP280;15077;49.704;9.908;2024-02-21T10:10:05;98552.13;;;13.09
27826;BMP280;15077;49.704;9.908;2024-02-21T10:12:31;98552.88;;;13.11
27826;BMP280;15077;49.704;9.908;2024-02-21T10:15:04;98550.19;;;13.14
27826;BMP280;15077;49.704;9.908;2024-02-21T10:17:30;98546.63;;;13.18
27826;BMP280;15077;49.704;9.908;2024-02-21T10:20:06;98539.69;;;13.21
27826;BMP280;15077;49.704;9.908;2024-02-21T10:22:32;98536.03;;;13.27
27826;BMP280;15077;49.704;9.908;2024-02-21T10:25:11;98535.78;;;13.33
27826;BMP280;15077;49.704;9.908;2024-02-21T10:27:37;98533.84;;;13.38
27826;BMP280;15077;49.704;9.908;2024-02-21T10:30:13;98537.78;;;13.45
27826;BMP280;15077;49.704;9.908;2024-02-21T10:32:53;98542.59;;;13.51
27826;BMP280;15077;49.704;9.908;2024-02-21T10:35:26;98535.41;;;13.58
27826;BMP280;15077;49.704;9.908;2024-02-21T10:37:54;98523.09;;;13.68
27826;BMP280;15077;49.704;9.908;2024-02-21T10:40:26;98516.59;;;13.79
27826;BMP280;15077;49.704;9.908;2024-02-21T10:43:01;98509.44;;;13.87
27826;BMP280;15077;49.704;9.908;2024-02-21T10:45:31;98501.44;;;13.95
27826;BMP280;15077;49.704;9.908;2024-02-21T10:48:20;98497.56;;;14.05
27826;BMP280;15077;49.704;9.908;2024-02-21T10:50:59;98499.63;;;14.15
27826;BMP280;15077;49.704;9.908;2024-02-21T10:56:26;98484.25;;;14.33
27826;BMP280;15077;49.704;9.908;2024-02-21T10:58:54;98493.31;;;14.39
27826;BMP280;15077;49.704;9.908;2024-02-21T11:01:22;98468.41;;;14.44
27826;BMP280;15077;49.704;9.908;2024-02-21T11:03:52;98463.91;;;14.49
27826;BMP280;15077;49.704;9.908;2024-02-21T11:06:19;98466.25;;;14.53
27826;BMP280;15077;49.704;9.908;2024-02-21T11:08:46;98460.91;;;14.57
27826;BMP280;15077;49.704;9.908;2024-02-21T11:11:13;98453.84;;;14.62
27826;BMP280;15077;49.704;9.908;2024-02-21T11:13:43;98442.59;;;14.66
27826;BMP280;15077;49.704;9.908;2024-02-21T11:16:10;98433.84;;;14.70
27826;BMP280;15077;49.704;9.908;2024-02-21T11:18:39;98420.94;;;14.73
27826;BMP280;15077;49.704;9.908;2024-02-21T11:21:05;98417.25;;;14.79
27826;BMP280;15077;49.704;9.908;2024-02-21T11:23:31;98424.66;;;14.83
27826;BMP280;15077;49.704;9.908;2024-02-21T11:26:09;98423.53;;;14.89
27826;BMP280;15077;49.704;9.908;2024-02-21T11:28:36;98419.06;;;14.92
27826;BMP280;15077;49.704;9.908;2024-02-21T11:31:12;98414.50;;;14.99
27826;BMP280;15077;49.704;9.908;2024-02-21T11:33:42;98409.31;;;15.00
27826;BMP280;15077;49.704;9.908;2024-02-21T11:36:09;98400.56;;;15.04
27826;BMP280;15077;49.704;9.908;2024-02-21T11:38:35;98394.41;;;15.08
27826;BMP280;15077;49.704;9.908;2024-02-21T11:41:00;98395.03;;;15.11
27826;BMP280;15077;49.704;9.908;2024-02-21T11:43:26;98390.63;;;15.15
27826;BMP280;15077;49.704;9.908;2024-02-21T11:45:59;98383.69;;;15.17
27826;BMP280;15077;49.704;9.908;2024-02-21T11:48:26;98386.19;;;15.18
27826;BMP280;15077;49.704;9.908;2024-02-21T11:50:55;98381.75;;;15.22
27826;BMP280;15077;49.704;9.908;2024-02-21T11:53:21;98375.56;;;15.26
27826;BMP280;15077;49.704;9.908;2024-02-21T11:55:47;98378.63;;;15.32
27826;BMP280;15077;49.704;9.908;2024-02-21T11:58:13;98371.59;;;15.36
27826;BMP280;15077;49.704;9.908;2024-02-21T12:00:38;98353.56;;;15.39
27826;BMP280;15077;49.704;9.908;2024-02-21T12:03:05;98351.72;;;15.41
27826;BMP280;15077;49.704;9.908;2024-02-21T12:05:31;98343.81;;;15.45
27826;BMP280;15077;49.704;9.908;2024-02-21T12:07:57;98329.06;;;15.50
27826;BMP280;15077;49.704;9.908;2024-02-21T12:10:23;98321.06;;;15.56
27826;BMP280;15077;49.704;9.908;2024-02-21T12:12:51;98318.25;;;15.60
27826;BMP280;15077;49.704;9.908;2024-02-21T12:15:18;98324.72;;;15.66
27826;BMP280;15077;49.704;9.908;2024-02-21T12:17:44;98309.97;;;15.71
27826;BMP280;15077;49.704;9.908;2024-02-21T12:20:10;98314.81;;;15.75
27826;BMP280;15077;49.704;9.908;2024-02-21T12:22:37;98309.59;;;15.77
27826;BMP280;15077;49.704;9.908;2024-02-21T12:25:23;98313.72;;;15.79
27826;BMP280;15077;49.704;9.908;2024-02-21T12:27:51;98316.19;;;15.81
27826;BMP280;15077;49.704;9.908;2024-02-21T12:30:17;98306.97;;;15.78
27826;BMP280;15077;49.704;9.908;2024-02-21T12:32:42;98302.66;;;15.79
27826;BMP280;15077;49.704;9.908;2024-02-21T12:35:08;98296.81;;;15.77
27826;BMP280;15077;49.704;9.908;2024-02-21T12:37:34;98287.50;;;15.76
27826;BMP280;15077;49.704;9.908;2024-02-21T12:39:59;98282.41;;;15.76
27826;BMP280;15077;49.704;9.908;2024-02-21T12:42:25;98283.41;;;15.73
27826;BMP280;15077;49.704;9.908;2024-02-21T12:44:52;98279.13;;;15.74
27826;BMP280;15077;49.704;9.908;2024-02-21T12:47:18;98276.66;;;15.72
27826;BMP280;15077;49.704;9.908;2024-02-21T12:49:45;98272.34;;;15.73
27826;BMP280;15077;49.704;9.908;2024-02-21T12:52:11;98269.06;;;15.71
27826;BMP280;15077;49.704;9.908;2024-02-21T12:54:38;98264.94;;;15.68
27826;BMP280;15077;49.704;9.908;2024-02-21T12:57:04;98259.13;;;15.66
27826;BMP280;15077;49.704;9.908;2024-02-21T12:59:30;98245.78;;;15.61
27826;BMP280;15077;49.704;9.908;2024-02-21T13:01:55;98241.59;;;15.60
27826;BMP280;15077;49.704;9.908;2024-02-21T13:04:21;98247.44;;;15.62
27826;BMP280;15077;49.704;9.908;2024-02-21T13:06:48;98248.16;;;15.64
27826;BMP280;15077;49.704;9.908;2024-02-21T13:09:14;98233.56;;;15.66
27826;BMP280;15077;49.704;9.908;2024-02-21T13:11:40;98234.28;;;15.68
27826;BMP280;15077;49.704;9.908;2024-02-21T13:14:06;98222.44;;;15.67
27826;BMP280;15077;49.704;9.908;2024-02-21T13:16:32;98224.06;;;15.68
27826;BMP280;15077;49.704;9.908;2024-02-21T13:19:05;98218.97;;;15.68
27826;BMP280;15077;49.704;9.908;2024-02-21T13:21:30;98213.84;;;15.68
27826;BMP280;15077;49.704;9.908;2024-02-21T13:23:56;98201.81;;;15.70
27826;BMP280;15077;49.704;9.908;2024-02-21T13:26:22;98184.84;;;15.69
27826;BMP280;15077;49.704;9.908;2024-02-21T13:28:48;98186.50;;;15.70
27826;BMP280;15077;49.704;9.908;2024-02-21T13:31:14;98184.66;;;15.72
27826;BMP280;15077;49.704;9.908;2024-02-21T13:33:42;98170.78;;;15.76
27826;BMP280;15077;49.704;9.908;2024-02-21T13:36:10;98173.16;;;15.79
27826;BMP280;15077;49.704;9.908;2024-02-21T13:38:35;98169.78;;;15.79
27826;BMP280;15077;49.704;9.908;2024-02-21T13:41:01;98169.78;;;15.79
27826;BMP280;15077;49.704;9.908;2024-02-21T13:43:27;98165.50;;;15.79
27826;BMP280;15077;49.704;9.908;2024-02-21T13:45:57;98165.69;;;15.76
27826;BMP280;15077;49.704;9.908;2024-02-21T13:48:26;98159.72;;;15.76
27826;BMP280;15077;49.704;9.908;2024-02-21T13:50:52;98162.19;;;15.77
27826;BMP280;15077;49.704;9.908;2024-02-21T13:53:18;98166.41;;;15.78
27826;BMP280;15077;49.704;9.908;2024-02-21T13:55:44;98162.94;;;15.79
27826;BMP280;15077;49.704;9.908;2024-02-21T13:58:10;98168.97;;;15.78
27826;BMP280;15077;49.704;9.908;2024-02-21T14:00:36;98159.63;;;15.77
27826;BMP280;15077;49.704;9.908;2024-02-21T14:03:02;98158.75;;;15.78
27826;BMP280;15077;49.704;9.908;2024-02-21T14:05:28;98156.91;;;15.80
27826;BMP280;15077;49.704;9.908;2024-02-21T14:07:53;98147.59;;;15.79
27826;BMP280;15077;49.704;9.908;2024-02-21T14:10:20;98143.41;;;15.78
27826;BMP280;15077;49.704;9.908;2024-02-21T14:12:46;98134.84;;;15.79